LEMD/MAD METAR and TAF weather

Enter ICAO airport designator
Station Type Date Time Source
LEMD METAR 2019/02/21 15:30 UTC NOAA

LEMD 211530Z 22002KT CAVOK 18/01 Q1027 NOSIG


Station Type Date Time Source
LEMD Decoded METAR 2019/02/21 15:30 UTC NOAA

Madrid / Barajas, Spain (LEMD) 40-27N 003-33W 582M
Feb 21, 2019 - 10:30 AM EST / 2019.02.21 1530 UTC
Wind: from the SW (220 degrees) at 2 MPH (2 KT):0
Visibility: greater than 7 mile(s):0
Temperature: 64 F (18 C)
Dew Point: 33 F (1 C)
Relative Humidity: 31%
Pressure (altimeter): 30.33 in. Hg (1027 hPa)
ob: LEMD 211530Z 22002KT CAVOK 18/01 Q1027 NOSIG
cycle: 15

Station Type Date Time Source
LEMD TAF 2019/02/21 12:28 UTC NOAA

TAF LEMD 211100Z 2112/2218 VRB04KT CAVOK TX18/2215Z TN00/2207Z


Example: see airport list